Stations météo

réclame
Mon MeteoGroup
Inverness/Dalcross, Grande-Bretagne (3059): Température de l'air & dewpoint: 17.04.2018 03:00:00 - 23.04.2018 03:00:00 (BST)Inverness/Dalcross, Grande-Bretagne (3059): Vitesse du vent: 17.04.2018 03:00:00 - 23.04.2018 03:00:00 (BST)Inverness/Dalcross, Grande-Bretagne (3059): Direction du vent: 17.04.2018 03:00:00 - 23.04.2018 03:00:00 (BST)Inverness/Dalcross, Grande-Bretagne (3059): visibility: 17.04.2018 03:00:00 - 23.04.2018 03:00:00 (BST)
Date & Time tt [°C] td [°C] ff [km/h] ff [knt] dd vv [km]
23.04.2018 03:00:00 8,0 7,0 34 18 SW 10
23.04.2018 02:00:00 8,0 7,0 22 12 SW 10
23.04.2018 01:00:00 7,0 6,0 13 7 SW 10
23.04.2018 00:00:00 8,0 7,0 18 10 WSW 10
22.04.2018 23:00:00 8,0 7,0 15 8 SW 10
22.04.2018 22:00:00 6,0 5,0 8 4 WSW 10
22.04.2018 21:00:00 9,0 6,0 18 10 WSW 10
22.04.2018 20:00:00 9,0 6,0 21 11 SW 10
22.04.2018 19:00:00 10,0 5,0 31 17 SW 10
22.04.2018 18:00:00 11,0 5,0 26 14 SW 10
22.04.2018 17:00:00 11,0 7,0 22 12 WSW 10
22.04.2018 16:00:00 11,0 8,0 29 16 WSW 10
22.04.2018 15:00:00 10,0 8,0 31 17 SW 10
22.04.2018 14:00:00 13,0 6,0 29 16 SSW 10
22.04.2018 13:00:00 11,0 7,0 24 13 SW 10
22.04.2018 12:00:00 11,0 7,0 26 14 SW 10
22.04.2018 11:00:00 12,0 7,0 22 12 WSW 10
22.04.2018 10:00:00 9,0 7,0 2 1 SSE 10
22.04.2018 09:00:00 7,0 6,0 9 5 SW 10
22.04.2018 08:00:00 5,0 5,0 9 5 WSW 10
22.04.2018 07:00:00 - - - - - -
22.04.2018 06:00:00 4,0 4,0 5 3 SSW 10
22.04.2018 05:00:00 5,0 5,0 4 2 SW 10
22.04.2018 04:00:00 4,0 4,0 5 3 - 10
22.04.2018 03:00:00 6,0 5,0 4 2 - 10
22.04.2018 02:00:00 5,0 5,0 0 0 N 10
22.04.2018 01:00:00 8,0 4,0 4 2 SSE 10
22.04.2018 00:00:00 7,0 6,0 4 2 E 10
21.04.2018 23:00:00 7,0 5,0 2 1 - 10
21.04.2018 22:00:00 8,0 7,0 9 5 NE 10
21.04.2018 21:00:00 - - - - - -
21.04.2018 20:00:00 - - - - - -
21.04.2018 19:00:00 13,0 9,0 4 2 N 10
21.04.2018 18:00:00 15,0 6,0 5 3 - 10
21.04.2018 17:00:00 15,0 6,0 5 3 - 10
21.04.2018 16:00:00 17,0 6,0 5 3 - 10
21.04.2018 15:00:00 - - - - - -
21.04.2018 14:00:00 - - - - - -
21.04.2018 13:00:00 15,0 6,0 11 6 NW 10
21.04.2018 12:00:00 14,0 6,0 11 6 WNW 10
21.04.2018 11:00:00 14,0 5,0 16 9 SW 10
21.04.2018 10:00:00 12,0 6,0 2 1 - 10
21.04.2018 09:00:00 11,0 7,0 2 1 - 10
21.04.2018 08:00:00 7,0 6,0 2 1 - 10
21.04.2018 07:00:00 4,0 4,0 9 5 WSW 10
21.04.2018 06:00:00 2,0 2,0 9 5 WSW 10
21.04.2018 05:00:00 1,0 1,0 13 7 SW 10
21.04.2018 04:00:00 2,0 2,0 8 4 W 10
21.04.2018 03:00:00 3,0 3,0 13 7 SW 10
21.04.2018 02:00:00 3,0 2,0 5 3 WSW 10
21.04.2018 01:00:00 4,0 3,0 13 7 SW 10
21.04.2018 00:00:00 5,0 4,0 5 3 SW 10
20.04.2018 23:00:00 7,0 4,0 18 10 SW 10
20.04.2018 22:00:00 6,0 4,0 11 6 SW 10
20.04.2018 21:00:00 8,0 5,0 18 10 WSW 10
20.04.2018 20:00:00 11,0 5,0 29 16 WSW 10
20.04.2018 19:00:00 11,0 6,0 21 11 W 10
20.04.2018 18:00:00 13,0 7,0 31 17 WSW 10
20.04.2018 17:00:00 12,0 11,0 26 14 SW 10
20.04.2018 16:00:00 12,0 8,0 34 18 WSW 10
20.04.2018 15:00:00 16,0 6,0 37 20 SW 10
20.04.2018 14:00:00 15,0 5,0 35 19 WSW 10
20.04.2018 13:00:00 12,0 8,0 29 16 W 10
20.04.2018 12:00:00 14,0 6,0 31 17 WSW 10
20.04.2018 11:00:00 13,0 6,0 35 19 SW 10
20.04.2018 10:00:00 14,0 6,0 41 22 SW 10
20.04.2018 09:00:00 12,0 8,0 26 14 WSW 10
20.04.2018 08:00:00 9,0 8,0 9 5 SW 10
20.04.2018 07:00:00 4,0 4,0 9 5 SW 10
20.04.2018 06:00:00 4,0 4,0 4 2 SW 10
20.04.2018 05:00:00 4,0 4,0 2 1 SSW 10
20.04.2018 04:00:00 5,0 5,0 8 4 WSW 10
20.04.2018 03:00:00 5,0 5,0 2 1 SSW 10
20.04.2018 02:00:00 5,0 5,0 2 1 SSW 10
20.04.2018 01:00:00 7,0 7,0 4 2 WSW 10
20.04.2018 00:00:00 7,0 7,0 9 5 SW 10
19.04.2018 23:00:00 8,0 7,0 8 4 SSW 10
19.04.2018 22:00:00 9,0 8,0 11 6 SW 10
19.04.2018 21:00:00 12,0 8,0 15 8 WSW 10
19.04.2018 20:00:00 14,0 9,0 21 11 WSW 10
19.04.2018 19:00:00 16,0 9,0 24 13 SW 10
19.04.2018 18:00:00 16,0 8,0 26 14 SW 10
19.04.2018 17:00:00 18,0 7,0 37 20 SW 10
19.04.2018 16:00:00 19,0 8,0 35 19 SW 10
19.04.2018 15:00:00 19,0 9,0 34 18 SW 10
19.04.2018 14:00:00 18,0 10,0 29 16 SW 10
19.04.2018 13:00:00 16,0 10,0 24 13 SSW 10
19.04.2018 12:00:00 15,0 10,0 26 14 SW 10
19.04.2018 11:00:00 14,0 10,0 21 11 WSW 10
19.04.2018 10:00:00 14,0 10,0 15 8 W 10
19.04.2018 09:00:00 15,0 10,0 15 8 SSW 10
19.04.2018 08:00:00 14,0 10,0 11 6 SW 10
19.04.2018 07:00:00 13,0 10,0 16 9 SW 10
19.04.2018 06:00:00 10,0 8,0 4 2 - 10
19.04.2018 05:00:00 10,0 7,0 9 5 SSW 10
19.04.2018 04:00:00 15,0 8,0 24 13 SW 10
19.04.2018 03:00:00 16,0 9,0 21 11 SSW 10
19.04.2018 02:00:00 16,0 9,0 22 12 S 10
19.04.2018 01:00:00 16,0 10,0 35 19 S 10
19.04.2018 00:00:00 16,0 10,0 39 21 S 10
18.04.2018 23:00:00 15,0 9,0 34 18 S 10
18.04.2018 22:00:00 15,0 9,0 29 16 S 10
18.04.2018 21:00:00 16,0 8,0 18 10 S 10
18.04.2018 20:00:00 16,0 9,0 15 8 SSW 10
18.04.2018 19:00:00 17,0 9,0 24 13 S 10
18.04.2018 18:00:00 17,0 9,0 35 19 S 10
18.04.2018 17:00:00 17,0 8,0 22 12 SSW 10
18.04.2018 16:00:00 19,0 8,0 16 9 SSW 10
18.04.2018 15:00:00 18,0 8,0 22 12 S 10
18.04.2018 14:00:00 18,0 8,0 24 13 SSW 10
18.04.2018 13:00:00 18,0 9,0 26 14 SW 10
18.04.2018 12:00:00 17,0 9,0 24 13 SSW 10
18.04.2018 11:00:00 15,0 9,0 16 9 SSW 10
18.04.2018 10:00:00 15,0 10,0 8 4 - 10
18.04.2018 09:00:00 12,0 10,0 8 4 NW 10
18.04.2018 08:00:00 11,0 9,0 2 1 - 10
18.04.2018 07:00:00 8,0 7,0 8 4 SW 10
18.04.2018 06:00:00 10,0 7,0 15 8 SSW 10
18.04.2018 05:00:00 10,0 7,0 16 9 SSW 10
18.04.2018 04:00:00 5,0 5,0 2 1 - 10
18.04.2018 03:00:00 7,0 6,0 0 0 N 10
18.04.2018 02:00:00 8,0 7,0 11 6 SW 10
18.04.2018 01:00:00 7,0 6,0 2 1 - 10
18.04.2018 00:00:00 8,0 6,0 4 2 - 10
17.04.2018 23:00:00 8,0 7,0 2 1 - 10
17.04.2018 22:00:00 10,0 7,0 16 9 SSW 10
17.04.2018 21:00:00 12,0 8,0 22 12 SSW 10
17.04.2018 20:00:00 12,0 9,0 22 12 SW 10
17.04.2018 19:00:00 11,0 10,0 28 15 SW 10
17.04.2018 18:00:00 16,0 7,0 39 21 SSW 10
17.04.2018 17:00:00 16,0 6,0 37 20 SSW 10
17.04.2018 16:00:00 18,0 6,0 39 21 SSW 10
17.04.2018 15:00:00 17,0 6,0 37 20 SSW 10
17.04.2018 14:00:00 17,0 6,0 41 22 SSW 10
17.04.2018 13:00:00 17,0 5,0 46 25 SSW 10
17.04.2018 12:00:00 17,0 6,0 37 20 SSW 10
17.04.2018 11:00:00 16,0 8,0 34 18 SSW 10
17.04.2018 10:00:00 14,0 7,0 34 18 S 10
17.04.2018 09:00:00 13,0 6,0 8 4 WSW 10
17.04.2018 08:00:00 12,0 6,0 5 3 - 10
17.04.2018 07:00:00 12,0 5,0 11 6 - 10
17.04.2018 06:00:00 11,0 5,0 11 6 NNE 10
17.04.2018 05:00:00 11,0 5,0 13 7 S 10
17.04.2018 04:00:00 11,0 5,0 34 18 SSE 10
17.04.2018 03:00:00 11,0 5,0 26 14 S 10

tt = Température de l'air
td = dewpoint
ff = Vitesse du vent
dd = Direction du vent
vv = visibility

stations d'obs. à proximité